sensor_id;sensor_type;location;lat;lon;timestamp;pressure;altitude;pressure_sealevel;temperature;humidity
35989;BME280;22064;42.672;23.282;2023-04-24T00:00:20;94419.84;;;10.32;100.00
35989;BME280;22064;42.672;23.282;2023-04-24T00:02:47;94419.50;;;10.51;100.00
35989;BME280;22064;42.672;23.282;2023-04-24T00:05:14;94421.16;;;10.62;100.00
35989;BME280;22064;42.672;23.282;2023-04-24T00:07:41;94414.94;;;10.36;100.00
35989;BME280;22064;42.672;23.282;2023-04-24T00:10:07;94420.22;;;10.46;100.00
35989;BME280;22064;42.672;23.282;2023-04-24T00:12:34;94417.19;;;10.54;100.00
35989;BME280;22064;42.672;23.282;2023-04-24T00:15:00;94419.16;;;10.69;100.00
35989;BME280;22064;42.672;23.282;2023-04-24T00:17:26;94393.47;;;10.51;100.00
35989;BME280;22064;42.672;23.282;2023-04-24T00:19:52;94413.53;;;10.55;100.00
35989;BME280;22064;42.672;23.282;2023-04-24T00:22:24;94402.94;;;10.62;100.00
35989;BME280;22064;42.672;23.282;2023-04-24T00:24:50;94405.94;;;10.76;100.00
35989;BME280;22064;42.672;23.282;2023-04-24T00:27:16;94407.97;;;10.42;100.00
35989;BME280;22064;42.672;23.282;2023-04-24T00:29:42;94407.06;;;10.09;100.00
35989;BME280;22064;42.672;23.282;2023-04-24T00:32:08;94407.03;;;10.04;100.00
35989;BME280;22064;42.672;23.282;2023-04-24T00:34:34;94410.53;;;9.92;100.00
35989;BME280;22064;42.672;23.282;2023-04-24T00:37:00;94411.97;;;9.83;100.00
35989;BME280;22064;42.672;23.282;2023-04-24T00:39:26;94404.94;;;9.79;100.00
35989;BME280;22064;42.672;23.282;2023-04-24T00:41:52;94404.63;;;9.75;100.00
35989;BME280;22064;42.672;23.282;2023-04-24T00:44:19;94404.16;;;9.78;100.00
35989;BME280;22064;42.672;23.282;2023-04-24T00:46:46;94403.50;;;9.93;100.00
35989;BME280;22064;42.672;23.282;2023-04-24T00:49:23;94397.22;;;9.89;100.00
35989;BME280;22064;42.672;23.282;2023-04-24T00:51:49;94407.56;;;10.06;100.00
35989;BME280;22064;42.672;23.282;2023-04-24T00:54:17;94406.41;;;9.97;100.00
35989;BME280;22064;42.672;23.282;2023-04-24T00:56:44;94409.50;;;9.93;100.00
35989;BME280;22064;42.672;23.282;2023-04-24T00:59:16;94406.84;;;9.88;100.00
35989;BME280;22064;42.672;23.282;2023-04-24T01:01:43;94402.81;;;9.98;100.00
35989;BME280;22064;42.672;23.282;2023-04-24T01:04:11;94399.34;;;9.92;100.00
35989;BME280;22064;42.672;23.282;2023-04-24T01:06:39;94402.50;;;9.94;100.00
35989;BME280;22064;42.672;23.282;2023-04-24T01:09:05;94382.03;;;10.03;100.00
35989;BME280;22064;42.672;23.282;2023-04-24T01:11:33;94381.69;;;10.21;100.00
35989;BME280;22064;42.672;23.282;2023-04-24T01:14:01;94382.34;;;10.28;100.00
35989;BME280;22064;42.672;23.282;2023-04-24T01:16:27;94380.53;;;10.29;100.00
35989;BME280;22064;42.672;23.282;2023-04-24T01:18:53;94378.22;;;10.32;100.00
35989;BME280;22064;42.672;23.282;2023-04-24T01:21:20;94377.78;;;10.40;100.00
35989;BME280;22064;42.672;23.282;2023-04-24T01:23:47;94371.50;;;10.14;100.00
35989;BME280;22064;42.672;23.282;2023-04-24T01:26:16;94361.06;;;10.09;100.00
35989;BME280;22064;42.672;23.282;2023-04-24T01:28:42;94365.75;;;10.12;100.00
35989;BME280;22064;42.672;23.282;2023-04-24T01:31:08;94368.94;;;10.20;100.00
35989;BME280;22064;42.672;23.282;2023-04-24T01:33:34;94371.47;;;9.87;100.00
35989;BME280;22064;42.672;23.282;2023-04-24T01:36:01;94369.19;;;9.69;100.00
35989;BME280;22064;42.672;23.282;2023-04-24T01:38:27;94348.06;;;9.65;100.00
35989;BME280;22064;42.672;23.282;2023-04-24T01:40:53;94361.31;;;9.64;100.00
35989;BME280;22064;42.672;23.282;2023-04-24T01:43:19;94366.63;;;9.74;100.00
35989;BME280;22064;42.672;23.282;2023-04-24T01:45:45;94370.38;;;9.83;100.00
35989;BME280;22064;42.672;23.282;2023-04-24T01:48:12;94377.03;;;9.74;100.00
35989;BME280;22064;42.672;23.282;2023-04-24T01:50:39;94360.16;;;9.77;100.00
35989;BME280;22064;42.672;23.282;2023-04-24T01:53:05;94367.09;;;9.66;100.00
35989;BME280;22064;42.672;23.282;2023-04-24T01:55:31;94363.38;;;9.62;100.00
35989;BME280;22064;42.672;23.282;2023-04-24T01:57:57;94361.53;;;9.40;100.00
35989;BME280;22064;42.672;23.282;2023-04-24T02:00:25;94372.06;;;9.29;100.00
35989;BME280;22064;42.672;23.282;2023-04-24T02:02:52;94372.00;;;9.23;100.00
35989;BME280;22064;42.672;23.282;2023-04-24T02:05:18;94366.50;;;9.03;100.00
35989;BME280;22064;42.672;23.282;2023-04-24T02:07:44;94365.88;;;8.96;100.00
35989;BME280;22064;42.672;23.282;2023-04-24T02:10:10;94362.03;;;8.98;100.00
35989;BME280;22064;42.672;23.282;2023-04-24T02:12:41;94368.56;;;9.01;100.00
35989;BME280;22064;42.672;23.282;2023-04-24T02:15:07;94362.91;;;8.87;100.00
35989;BME280;22064;42.672;23.282;2023-04-24T02:17:36;94374.41;;;8.91;100.00
35989;BME280;22064;42.672;23.282;2023-04-24T02:20:04;94349.88;;;8.48;100.00
35989;BME280;22064;42.672;23.282;2023-04-24T02:22:31;94368.34;;;8.52;100.00
35989;BME280;22064;42.672;23.282;2023-04-24T02:25:01;94372.19;;;8.49;100.00
35989;BME280;22064;42.672;23.282;2023-04-24T02:27:27;94363.06;;;8.47;100.00
35989;BME280;22064;42.672;23.282;2023-04-24T02:29:53;94351.72;;;8.36;100.00
35989;BME280;22064;42.672;23.282;2023-04-24T02:32:18;94362.31;;;8.34;100.00
35989;BME280;22064;42.672;23.282;2023-04-24T02:34:44;94351.63;;;8.31;100.00
35989;BME280;22064;42.672;23.282;2023-04-24T02:37:12;94347.00;;;8.33;100.00
35989;BME280;22064;42.672;23.282;2023-04-24T02:39:37;94326.06;;;8.23;100.00
35989;BME280;22064;42.672;23.282;2023-04-24T02:42:03;94345.22;;;8.22;100.00
35989;BME280;22064;42.672;23.282;2023-04-24T02:44:30;94340.75;;;8.17;100.00
35989;BME280;22064;42.672;23.282;2023-04-24T02:46:57;94320.84;;;8.06;100.00
35989;BME280;22064;42.672;23.282;2023-04-24T02:49:23;94332.41;;;8.15;100.00
35989;BME280;22064;42.672;23.282;2023-04-24T02:51:48;94326.03;;;8.06;100.00
35989;BME280;22064;42.672;23.282;2023-04-24T02:54:14;94330.44;;;8.05;100.00
35989;BME280;22064;42.672;23.282;2023-04-24T02:56:40;94334.53;;;8.18;100.00
35989;BME280;22064;42.672;23.282;2023-04-24T02:59:08;94329.19;;;8.25;100.00
35989;BME280;22064;42.672;23.282;2023-04-24T03:01:36;94339.19;;;8.16;100.00
35989;BME280;22064;42.672;23.282;2023-04-24T03:04:02;94344.97;;;8.06;100.00
35989;BME280;22064;42.672;23.282;2023-04-24T03:06:29;94346.94;;;7.99;100.00
35989;BME280;22064;42.672;23.282;2023-04-24T03:08:57;94348.88;;;7.92;100.00
35989;BME280;22064;42.672;23.282;2023-04-24T03:11:22;94346.44;;;7.85;100.00
35989;BME280;22064;42.672;23.282;2023-04-24T03:13:48;94341.72;;;7.82;100.00
35989;BME280;22064;42.672;23.282;2023-04-24T03:16:14;94348.47;;;7.83;100.00
35989;BME280;22064;42.672;23.282;2023-04-24T03:18:40;94340.06;;;7.93;100.00
35989;BME280;22064;42.672;23.282;2023-04-24T03:21:07;94346.75;;;7.89;100.00
35989;BME280;22064;42.672;23.282;2023-04-24T03:23:34;94351.53;;;7.97;100.00
35989;BME280;22064;42.672;23.282;2023-04-24T03:26:00;94355.16;;;7.96;100.00
35989;BME280;22064;42.672;23.282;2023-04-24T03:28:26;94349.06;;;8.02;100.00
35989;BME280;22064;42.672;23.282;2023-04-24T03:31:02;94347.19;;;8.15;100.00
35989;BME280;22064;42.672;23.282;2023-04-24T03:33:32;94355.25;;;8.30;100.00
35989;BME280;22064;42.672;23.282;2023-04-24T03:36:00;94345.94;;;8.46;100.00
35989;BME280;22064;42.672;23.282;2023-04-24T03:38:33;94349.22;;;8.58;100.00
35989;BME280;22064;42.672;23.282;2023-04-24T03:41:04;94324.97;;;8.36;100.00
35989;BME280;22064;42.672;23.282;2023-04-24T03:43:45;94353.16;;;8.44;100.00
35989;BME280;22064;42.672;23.282;2023-04-24T03:46:11;94353.69;;;8.63;100.00
35989;BME280;22064;42.672;23.282;2023-04-24T03:48:44;94347.31;;;8.53;100.00
35989;BME280;22064;42.672;23.282;2023-04-24T03:51:10;94351.75;;;8.70;100.00
35989;BME280;22064;42.672;23.282;2023-04-24T03:53:39;94344.50;;;8.72;100.00
35989;BME280;22064;42.672;23.282;2023-04-24T03:56:05;94338.38;;;8.61;100.00
35989;BME280;22064;42.672;23.282;2023-04-24T03:58:32;94354.25;;;8.65;100.00
35989;BME280;22064;42.672;23.282;2023-04-24T04:00:59;94349.69;;;8.72;100.00
35989;BME280;22064;42.672;23.282;2023-04-24T04:03:53;94356.16;;;8.86;100.00
35989;BME280;22064;42.672;23.282;2023-04-24T04:06:22;94342.00;;;8.77;100.00
35989;BME280;22064;42.672;23.282;2023-04-24T04:08:50;94345.25;;;9.06;100.00
35989;BME280;22064;42.672;23.282;2023-04-24T04:11:16;94351.00;;;9.47;100.00
35989;BME280;22064;42.672;23.282;2023-04-24T04:13:44;94339.44;;;9.38;100.00
35989;BME280;22064;42.672;23.282;2023-04-24T04:16:11;94338.31;;;9.51;100.00
35989;BME280;22064;42.672;23.282;2023-04-24T04:18:38;94346.25;;;9.88;100.00
35989;BME280;22064;42.672;23.282;2023-04-24T04:21:06;94345.94;;;10.06;100.00
35989;BME280;22064;42.672;23.282;2023-04-24T04:23:33;94338.00;;;9.96;100.00
35989;BME280;22064;42.672;23.282;2023-04-24T04:26:11;94356.47;;;10.22;100.00
35989;BME280;22064;42.672;23.282;2023-04-24T04:29:04;94353.50;;;10.35;100.00
35989;BME280;22064;42.672;23.282;2023-04-24T04:31:34;94359.81;;;10.17;100.00
35989;BME280;22064;42.672;23.282;2023-04-24T04:34:05;94348.91;;;9.93;100.00
35989;BME280;22064;42.672;23.282;2023-04-24T04:36:33;94368.22;;;9.75;100.00
35989;BME280;22064;42.672;23.282;2023-04-24T04:39:09;94366.13;;;9.33;100.00
35989;BME280;22064;42.672;23.282;2023-04-24T04:41:51;94380.03;;;9.05;100.00
35989;BME280;22064;42.672;23.282;2023-04-24T04:44:20;94382.19;;;8.74;100.00
35989;BME280;22064;42.672;23.282;2023-04-24T04:46:46;94367.25;;;8.65;100.00
35989;BME280;22064;42.672;23.282;2023-04-24T04:49:27;94368.25;;;8.81;100.00
35989;BME280;22064;42.672;23.282;2023-04-24T04:51:54;94384.31;;;8.94;100.00
35989;BME280;22064;42.672;23.282;2023-04-24T04:54:21;94392.63;;;8.96;100.00
35989;BME280;22064;42.672;23.282;2023-04-24T04:56:49;94391.63;;;8.97;100.00
35989;BME280;22064;42.672;23.282;2023-04-24T04:59:16;94388.47;;;8.95;100.00
35989;BME280;22064;42.672;23.282;2023-04-24T05:01:42;94390.63;;;8.82;100.00
35989;BME280;22064;42.672;23.282;2023-04-24T05:04:09;94391.06;;;9.12;100.00
35989;BME280;22064;42.672;23.282;2023-04-24T05:06:36;94396.44;;;8.89;100.00
35989;BME280;22064;42.672;23.282;2023-04-24T05:09:04;94393.81;;;9.06;100.00
35989;BME280;22064;42.672;23.282;2023-04-24T05:11:40;94389.78;;;9.32;100.00
35989;BME280;22064;42.672;23.282;2023-04-24T05:14:06;94394.19;;;9.53;100.00
35989;BME280;22064;42.672;23.282;2023-04-24T05:16:37;94380.56;;;9.63;100.00
35989;BME280;22064;42.672;23.282;2023-04-24T05:19:04;94384.91;;;9.79;100.00
35989;BME280;22064;42.672;23.282;2023-04-24T05:21:35;94387.22;;;10.03;100.00
35989;BME280;22064;42.672;23.282;2023-04-24T05:24:01;94382.47;;;10.22;100.00
35989;BME280;22064;42.672;23.282;2023-04-24T05:26:53;94379.19;;;10.26;100.00
35989;BME280;22064;42.672;23.282;2023-04-24T05:29:24;94382.91;;;10.35;100.00
35989;BME280;22064;42.672;23.282;2023-04-24T05:31:52;94378.34;;;10.48;100.00
35989;BME280;22064;42.672;23.282;2023-04-24T05:34:19;94385.88;;;10.76;100.00
35989;BME280;22064;42.672;23.282;2023-04-24T05:36:49;94388.53;;;10.86;100.00
35989;BME280;22064;42.672;23.282;2023-04-24T05:39:16;94375.13;;;11.05;100.00
35989;BME280;22064;42.672;23.282;2023-04-24T05:41:42;94382.50;;;11.18;100.00
35989;BME280;22064;42.672;23.282;2023-04-24T05:44:08;94387.81;;;11.33;100.00
35989;BME280;22064;42.672;23.282;2023-04-24T05:46:34;94399.38;;;11.48;100.00
35989;BME280;22064;42.672;23.282;2023-04-24T05:49:00;94391.59;;;11.58;100.00
35989;BME280;22064;42.672;23.282;2023-04-24T05:51:25;94377.88;;;11.78;100.00
35989;BME280;22064;42.672;23.282;2023-04-24T05:53:52;94385.50;;;11.90;100.00
35989;BME280;22064;42.672;23.282;2023-04-24T05:56:18;94386.84;;;11.97;100.00
35989;BME280;22064;42.672;23.282;2023-04-24T05:58:45;94385.28;;;11.96;100.00
35989;BME280;22064;42.672;23.282;2023-04-24T06:01:12;94384.44;;;11.86;100.00
35989;BME280;22064;42.672;23.282;2023-04-24T06:03:41;94377.72;;;12.05;100.00
35989;BME280;22064;42.672;23.282;2023-04-24T06:06:08;94382.97;;;12.20;100.00
35989;BME280;22064;42.672;23.282;2023-04-24T06:08:35;94379.34;;;12.27;100.00
35989;BME280;22064;42.672;23.282;2023-04-24T06:11:01;94379.34;;;12.27;100.00
35989;BME280;22064;42.672;23.282;2023-04-24T06:13:27;94379.06;;;12.23;100.00
35989;BME280;22064;42.672;23.282;2023-04-24T06:16:13;94381.47;;;12.55;100.00
35989;BME280;22064;42.672;23.282;2023-04-24T06:18:44;94382.00;;;12.73;100.00
35989;BME280;22064;42.672;23.282;2023-04-24T06:21:10;94387.75;;;13.15;100.00
35989;BME280;22064;42.672;23.282;2023-04-24T06:23:36;94386.16;;;13.45;100.00
35989;BME280;22064;42.672;23.282;2023-04-24T06:26:02;94376.00;;;13.33;95.07
35989;BME280;22064;42.672;23.282;2023-04-24T06:28:28;94387.19;;;13.39;94.02
35989;BME280;22064;42.672;23.282;2023-04-24T06:30:54;94388.50;;;13.42;92.76
35989;BME280;22064;42.672;23.282;2023-04-24T06:33:21;94382.25;;;13.37;92.00
35989;BME280;22064;42.672;23.282;2023-04-24T06:35:47;94384.88;;;13.22;95.52
35989;BME280;22064;42.672;23.282;2023-04-24T06:38:13;94378.31;;;13.14;94.38
35989;BME280;22064;42.672;23.282;2023-04-24T06:40:39;94387.50;;;12.76;100.00
35989;BME280;22064;42.672;23.282;2023-04-24T06:43:05;94393.50;;;12.61;100.00
35989;BME280;22064;42.672;23.282;2023-04-24T06:45:31;94396.91;;;12.62;100.00
35989;BME280;22064;42.672;23.282;2023-04-24T06:47:57;94389.25;;;12.19;100.00
35989;BME280;22064;42.672;23.282;2023-04-24T06:50:24;94387.88;;;12.01;100.00
35989;BME280;22064;42.672;23.282;2023-04-24T06:52:50;94396.81;;;11.58;100.00
35989;BME280;22064;42.672;23.282;2023-04-24T06:55:16;94383.88;;;11.84;100.00
35989;BME280;22064;42.672;23.282;2023-04-24T06:57:42;94380.13;;;12.22;100.00
35989;BME280;22064;42.672;23.282;2023-04-24T07:00:10;94383.59;;;12.84;100.00
35989;BME280;22064;42.672;23.282;2023-04-24T07:02:36;94375.19;;;13.33;100.00
35989;BME280;22064;42.672;23.282;2023-04-24T07:05:04;94380.81;;;13.81;96.53
35989;BME280;22064;42.672;23.282;2023-04-24T07:07:30;94368.31;;;14.22;89.14
35989;BME280;22064;42.672;23.282;2023-04-24T07:09:57;94362.34;;;14.61;84.54
35989;BME280;22064;42.672;23.282;2023-04-24T07:12:23;94357.19;;;14.46;79.56
35989;BME280;22064;42.672;23.282;2023-04-24T07:14:50;94362.16;;;14.42;80.86
35989;BME280;22064;42.672;23.282;2023-04-24T07:17:16;94368.53;;;14.31;83.50
35989;BME280;22064;42.672;23.282;2023-04-24T07:19:42;94366.53;;;14.57;81.93
35989;BME280;22064;42.672;23.282;2023-04-24T07:22:08;94355.16;;;14.77;75.54
35989;BME280;22064;42.672;23.282;2023-04-24T07:24:34;94360.63;;;14.81;77.48
35989;BME280;22064;42.672;23.282;2023-04-24T07:27:00;94363.19;;;14.86;75.69
35989;BME280;22064;42.672;23.282;2023-04-24T07:29:28;94348.25;;;14.86;73.95
35989;BME280;22064;42.672;23.282;2023-04-24T07:31:55;94354.41;;;15.00;75.26
35989;BME280;22064;42.672;23.282;2023-04-24T07:34:21;94345.19;;;15.32;72.46
35989;BME280;22064;42.672;23.282;2023-04-24T07:36:47;94352.91;;;15.47;71.57
35989;BME280;22064;42.672;23.282;2023-04-24T07:39:13;94338.50;;;15.45;69.14
35989;BME280;22064;42.672;23.282;2023-04-24T07:41:39;94333.91;;;15.32;69.96
35989;BME280;22064;42.672;23.282;2023-04-24T07:44:05;94340.44;;;15.34;69.21
35989;BME280;22064;42.672;23.282;2023-04-24T07:46:32;94347.66;;;15.47;69.89
35989;BME280;22064;42.672;23.282;2023-04-24T07:48:58;94336.38;;;15.47;68.48
35989;BME280;22064;42.672;23.282;2023-04-24T07:51:26;94339.84;;;15.42;69.76
35989;BME280;22064;42.672;23.282;2023-04-24T07:53:56;94330.53;;;15.55;69.32
35989;BME280;22064;42.672;23.282;2023-04-24T07:56:22;94337.41;;;15.75;67.80
35989;BME280;22064;42.672;23.282;2023-04-24T07:58:48;94329.00;;;15.73;67.33
35989;BME280;22064;42.672;23.282;2023-04-24T08:01:14;94326.63;;;15.77;66.13
35989;BME280;22064;42.672;23.282;2023-04-24T08:03:40;94334.16;;;15.83;65.27
35989;BME280;22064;42.672;23.282;2023-04-24T08:06:06;94325.63;;;15.48;65.96
35989;BME280;22064;42.672;23.282;2023-04-24T08:08:31;94328.75;;;15.75;65.15
35989;BME280;22064;42.672;23.282;2023-04-24T08:10:58;94327.47;;;15.72;65.66
35989;BME280;22064;42.672;23.282;2023-04-24T08:13:24;94320.47;;;15.86;64.96
35989;BME280;22064;42.672;23.282;2023-04-24T08:15:50;94313.31;;;16.11;63.39
35989;BME280;22064;42.672;23.282;2023-04-24T08:18:16;94320.41;;;16.48;60.28
35989;BME280;22064;42.672;23.282;2023-04-24T08:20:42;94323.09;;;16.43;61.90
35989;BME280;22064;42.672;23.282;2023-04-24T08:23:08;94307.84;;;16.45;62.25
35989;BME280;22064;42.672;23.282;2023-04-24T08:25:34;94309.66;;;16.82;61.04
35989;BME280;22064;42.672;23.282;2023-04-24T08:28:02;94312.88;;;17.07;59.12
35989;BME280;22064;42.672;23.282;2023-04-24T08:30:29;94307.28;;;17.27;58.25
35989;BME280;22064;42.672;23.282;2023-04-24T08:32:56;94308.94;;;17.37;57.72
35989;BME280;22064;42.672;23.282;2023-04-24T08:35:22;94309.53;;;17.48;56.62
35989;BME280;22064;42.672;23.282;2023-04-24T08:37:48;94300.25;;;17.37;56.04
35989;BME280;22064;42.672;23.282;2023-04-24T08:40:15;94302.69;;;17.47;55.95
35989;BME280;22064;42.672;23.282;2023-04-24T08:42:43;94289.44;;;17.52;55.46
35989;BME280;22064;42.672;23.282;2023-04-24T08:45:13;94278.41;;;17.50;54.61
35989;BME280;22064;42.672;23.282;2023-04-24T08:47:40;94287.19;;;17.59;55.18
35989;BME280;22064;42.672;23.282;2023-04-24T08:50:07;94276.75;;;17.82;54.15
35989;BME280;22064;42.672;23.282;2023-04-24T08:52:34;94269.22;;;17.75;53.99
35989;BME280;22064;42.672;23.282;2023-04-24T08:55:00;94275.09;;;17.86;53.71
35989;BME280;22064;42.672;23.282;2023-04-24T08:57:27;94277.44;;;17.73;53.45
35989;BME280;22064;42.672;23.282;2023-04-24T08:59:54;94270.88;;;17.85;53.52
35989;BME280;22064;42.672;23.282;2023-04-24T09:02:21;94266.88;;;18.01;53.42
35989;BME280;22064;42.672;23.282;2023-04-24T09:04:47;94267.59;;;18.15;52.69
35989;BME280;22064;42.672;23.282;2023-04-24T09:07:16;94264.25;;;18.46;51.25
35989;BME280;22064;42.672;23.282;2023-04-24T09:09:44;94263.06;;;18.75;50.54
35989;BME280;22064;42.672;23.282;2023-04-24T09:12:10;94247.25;;;18.75;50.21
35989;BME280;22064;42.672;23.282;2023-04-24T09:14:37;94247.72;;;18.77;51.87
35989;BME280;22064;42.672;23.282;2023-04-24T09:17:11;94243.53;;;18.76;51.46
35989;BME280;22064;42.672;23.282;2023-04-24T09:19:37;94240.69;;;18.95;51.28
35989;BME280;22064;42.672;23.282;2023-04-24T09:22:06;94245.31;;;19.29;50.03
35989;BME280;22064;42.672;23.282;2023-04-24T09:24:33;94237.41;;;19.37;49.72
35989;BME280;22064;42.672;23.282;2023-04-24T09:27:00;94229.69;;;19.01;49.77
35989;BME280;22064;42.672;23.282;2023-04-24T09:29:27;94233.47;;;19.18;50.30
35989;BME280;22064;42.672;23.282;2023-04-24T09:31:53;94217.66;;;19.26;49.69
35989;BME280;22064;42.672;23.282;2023-04-24T09:34:25;94231.84;;;19.48;48.84
35989;BME280;22064;42.672;23.282;2023-04-24T09:36:52;94230.34;;;19.64;48.03
35989;BME280;22064;42.672;23.282;2023-04-24T09:39:18;94229.03;;;19.35;47.87
35989;BME280;22064;42.672;23.282;2023-04-24T09:41:54;94229.50;;;19.46;47.78
35989;BME280;22064;42.672;23.282;2023-04-24T09:44:26;94212.34;;;19.75;47.30
35989;BME280;22064;42.672;23.282;2023-04-24T09:46:53;94226.97;;;19.98;46.58
35989;BME280;22064;42.672;23.282;2023-04-24T09:49:22;94223.72;;;20.01;46.14
35989;BME280;22064;42.672;23.282;2023-04-24T09:51:49;94212.81;;;20.03;46.15
35989;BME280;22064;42.672;23.282;2023-04-24T09:54:19;94212.34;;;20.18;46.31
35989;BME280;22064;42.672;23.282;2023-04-24T09:56:48;94210.59;;;20.48;45.46
35989;BME280;22064;42.672;23.282;2023-04-24T09:59:16;94209.97;;;20.69;44.73
35989;BME280;22064;42.672;23.282;2023-04-24T10:01:42;94200.31;;;20.73;44.16
35989;BME280;22064;42.672;23.282;2023-04-24T10:04:21;94197.56;;;20.99;43.89
35989;BME280;22064;42.672;23.282;2023-04-24T10:06:48;94199.78;;;20.97;43.21
35989;BME280;22064;42.672;23.282;2023-04-24T10:09:15;94187.94;;;21.24;42.28
35989;BME280;22064;42.672;23.282;2023-04-24T10:11:44;94174.84;;;21.57;41.55
35989;BME280;22064;42.672;23.282;2023-04-24T10:14:18;94181.06;;;21.82;40.26
35989;BME280;22064;42.672;23.282;2023-04-24T10:16:44;94168.47;;;22.00;40.16
35989;BME280;22064;42.672;23.282;2023-04-24T10:19:13;94161.28;;;22.01;39.75
35989;BME280;22064;42.672;23.282;2023-04-24T10:21:41;94164.22;;;21.87;39.67
35989;BME280;22064;42.672;23.282;2023-04-24T10:24:08;94156.66;;;21.56;40.06
35989;BME280;22064;42.672;23.282;2023-04-24T10:26:35;94158.06;;;21.53;40.22
35989;BME280;22064;42.672;23.282;2023-04-24T10:29:02;94146.81;;;21.35;40.11
35989;BME280;22064;42.672;23.282;2023-04-24T10:31:31;94159.31;;;21.17;40.18
35989;BME280;22064;42.672;23.282;2023-04-24T10:33:59;94155.69;;;20.63;41.02
35989;BME280;22064;42.672;23.282;2023-04-24T10:36:27;94135.06;;;20.30;39.59
35989;BME280;22064;42.672;23.282;2023-04-24T10:38:55;94152.59;;;20.52;38.62
35989;BME280;22064;42.672;23.282;2023-04-24T10:41:25;94146.38;;;20.39;40.21
35989;BME280;22064;42.672;23.282;2023-04-24T10:44:11;94135.75;;;20.65;38.86
35989;BME280;22064;42.672;23.282;2023-04-24T10:46:38;94139.31;;;20.78;39.22
35989;BME280;22064;42.672;23.282;2023-04-24T10:49:06;94127.19;;;21.57;38.13
35989;BME280;22064;42.672;23.282;2023-04-24T10:51:53;94128.28;;;22.31;36.99
35989;BME280;22064;42.672;23.282;2023-04-24T10:54:26;94122.41;;;21.72;36.94
35989;BME280;22064;42.672;23.282;2023-04-24T10:56:53;94123.59;;;21.32;38.14
35989;BME280;22064;42.672;23.282;2023-04-24T10:59:27;94128.84;;;20.82;38.11
35989;BME280;22064;42.672;23.282;2023-04-24T11:01:54;94123.91;;;20.16;39.30
35989;BME280;22064;42.672;23.282;2023-04-24T11:04:32;94115.75;;;20.38;39.23
35989;BME280;22064;42.672;23.282;2023-04-24T11:06:58;94125.16;;;19.75;40.66
35989;BME280;22064;42.672;23.282;2023-04-24T11:09:27;94128.75;;;19.79;40.43
35989;BME280;22064;42.672;23.282;2023-04-24T11:12:03;94138.22;;;19.80;40.64
35989;BME280;22064;42.672;23.282;2023-04-24T11:17:47;94174.78;;;17.96;47.35
35989;BME280;22064;42.672;23.282;2023-04-24T11:20:17;94173.69;;;16.36;87.77
35989;BME280;22064;42.672;23.282;2023-04-24T11:22:43;94215.84;;;15.13;100.00
35989;BME280;22064;42.672;23.282;2023-04-24T11:25:09;94186.09;;;14.45;100.00
35989;BME280;22064;42.672;23.282;2023-04-24T11:27:42;94186.84;;;14.56;100.00
35989;BME280;22064;42.672;23.282;2023-04-24T11:30:09;94175.69;;;14.93;100.00
35989;BME280;22064;42.672;23.282;2023-04-24T11:32:41;94183.00;;;14.96;100.00
35989;BME280;22064;42.672;23.282;2023-04-24T11:35:23;94177.09;;;15.29;100.00
35989;BME280;22064;42.672;23.282;2023-04-24T11:37:54;94177.63;;;15.50;100.00
35989;BME280;22064;42.672;23.282;2023-04-24T11:40:21;94172.41;;;15.68;100.00
35989;BME280;22064;42.672;23.282;2023-04-24T11:42:51;94162.38;;;15.89;100.00
35989;BME280;22064;42.672;23.282;2023-04-24T11:45:25;94143.50;;;16.20;100.00
35989;BME280;22064;42.672;23.282;2023-04-24T11:47:52;94146.00;;;16.58;100.00
35989;BME280;22064;42.672;23.282;2023-04-24T11:50:22;94135.75;;;17.25;100.00
35989;BME280;22064;42.672;23.282;2023-04-24T11:52:49;94143.44;;;17.72;100.00
35989;BME280;22064;42.672;23.282;2023-04-24T11:57:53;94135.56;;;18.48;100.00
35989;BME280;22064;42.672;23.282;2023-04-24T12:00:25;94129.25;;;18.89;100.00
35989;BME280;22064;42.672;23.282;2023-04-24T12:02:52;94126.84;;;19.36;100.00
35989;BME280;22064;42.672;23.282;2023-04-24T12:05:29;94113.06;;;19.65;100.00
35989;BME280;22064;42.672;23.282;2023-04-24T12:07:57;94121.28;;;20.07;88.38
35989;BME280;22064;42.672;23.282;2023-04-24T12:10:28;94125.94;;;19.93;67.37
35989;BME280;22064;42.672;23.282;2023-04-24T12:12:56;94128.09;;;20.08;73.15
35989;BME280;22064;42.672;23.282;2023-04-24T12:15:23;94117.56;;;20.46;66.09
35989;BME280;22064;42.672;23.282;2023-04-24T12:17:51;94118.88;;;20.87;60.22
35989;BME280;22064;42.672;23.282;2023-04-24T12:20:24;94109.50;;;21.19;56.34
35989;BME280;22064;42.672;23.282;2023-04-24T12:22:50;94102.69;;;21.60;52.01
35989;BME280;22064;42.672;23.282;2023-04-24T12:25:18;94096.44;;;21.98;50.12
35989;BME280;22064;42.672;23.282;2023-04-24T12:27:46;94086.38;;;21.71;51.02
35989;BME280;22064;42.672;23.282;2023-04-24T12:30:16;94069.78;;;21.82;48.94
35989;BME280;22064;42.672;23.282;2023-04-24T12:32:47;94074.53;;;21.89;47.88
35989;BME280;22064;42.672;23.282;2023-04-24T12:35:18;94083.28;;;22.02;48.06
35989;BME280;22064;42.672;23.282;2023-04-24T12:37:45;94064.63;;;22.31;44.98
35989;BME280;22064;42.672;23.282;2023-04-24T12:40:12;94063.41;;;21.96;45.35
35989;BME280;22064;42.672;23.282;2023-04-24T12:42:47;94060.78;;;22.08;46.03
35989;BME280;22064;42.672;23.282;2023-04-24T12:45:15;94053.69;;;22.45;42.93
35989;BME280;22064;42.672;23.282;2023-04-24T12:47:42;94047.50;;;22.78;42.24
35989;BME280;22064;42.672;23.282;2023-04-24T12:50:12;94034.13;;;22.99;40.83
35989;BME280;22064;42.672;23.282;2023-04-24T12:52:39;94038.34;;;22.51;42.62
35989;BME280;22064;42.672;23.282;2023-04-24T12:55:06;94022.31;;;22.72;41.50
35989;BME280;22064;42.672;23.282;2023-04-24T12:57:37;94017.97;;;22.55;42.42